createdAt,value
2023-02-11T01:25:50.622Z,19.20
2023-02-11T01:28:20.740Z,20.60
2023-02-11T01:30:49.805Z,22.40
2023-02-11T01:33:21.122Z,24.80
2023-02-11T01:35:50.040Z,24.40
2023-02-11T01:38:25.855Z,24.20
2023-02-11T01:40:57.623Z,25.70
2023-02-11T01:43:26.276Z,25.70
2023-02-11T01:46:03.118Z,21.70
2023-02-11T01:48:34.782Z,22.50
2023-02-11T01:51:14.713Z,23.50
2023-02-11T01:54:02.049Z,27.90
2023-02-11T01:56:53.858Z,30.70
2023-02-11T01:59:29.995Z,32.30
2023-02-11T02:02:02.361Z,32.50
2023-02-11T02:04:36.354Z,30.30
2023-02-11T02:07:09.557Z,34.60
2023-02-11T02:09:43.244Z,33.50
2023-02-11T02:12:11.709Z,34.70
2023-02-11T02:14:40.898Z,34.10
2023-02-11T02:17:24.422Z,31.80
2023-02-11T02:20:28.769Z,31.50
2023-02-11T02:23:07.620Z,30.50
2023-02-11T02:25:48.904Z,28.00
2023-02-11T02:28:26.437Z,27.40
2023-02-11T02:31:34.491Z,26.20
2023-02-11T02:34:08.079Z,25.90
2023-02-11T02:36:42.011Z,26.10
2023-02-11T02:39:20.907Z,25.20
2023-02-11T02:41:49.500Z,27.60
2023-02-11T02:44:20.776Z,27.70
2023-02-11T02:46:53.858Z,26.00
2023-02-11T02:49:22.566Z,24.00
2023-02-11T02:52:28.611Z,25.20
2023-02-11T02:55:12.518Z,24.30
2023-02-11T02:58:19.508Z,24.40
2023-02-11T03:00:50.323Z,22.70
2023-02-11T03:04:00.262Z,25.10
2023-02-11T03:06:51.755Z,23.60
2023-02-11T03:09:36.202Z,27.70
2023-02-11T03:12:11.897Z,28.40
2023-02-11T03:14:40.567Z,28.70
2023-02-11T03:17:08.907Z,28.30
2023-02-11T03:20:01.906Z,31.90
2023-02-11T03:22:38.186Z,29.70
2023-02-11T03:25:07.708Z,30.40
2023-02-11T03:27:47.435Z,29.30
2023-02-11T03:30:27.903Z,30.20
2023-02-11T03:33:03.496Z,30.20
2023-02-11T03:35:44.024Z,30.00
2023-02-11T03:38:25.641Z,27.80
2023-02-11T03:40:53.753Z,27.90
2023-02-11T03:43:28.238Z,26.40
2023-02-11T03:45:56.435Z,28.80
2023-02-11T03:48:26.255Z,26.30
2023-02-11T03:55:15.651Z,25.80
2023-02-11T03:57:44.171Z,29.00
2023-02-11T04:00:15.754Z,37.50
2023-02-11T04:02:46.427Z,41.80
2023-02-11T04:05:16.457Z,55.00
2023-02-11T04:07:45.360Z,47.90
2023-02-11T04:10:13.980Z,42.10
2023-02-11T04:12:42.158Z,47.40
2023-02-11T04:15:11.456Z,39.00
2023-02-11T04:17:40.453Z,38.10
2023-02-11T04:20:09.737Z,33.00
2023-02-11T04:22:38.196Z,26.70
2023-02-11T04:25:06.860Z,25.10
2023-02-11T04:27:35.986Z,28.60
2023-02-11T04:30:05.306Z,26.40
2023-02-11T04:32:34.294Z,27.10
2023-02-11T04:35:03.124Z,24.80
2023-02-11T04:37:31.345Z,23.40
2023-02-11T04:39:59.764Z,24.30
2023-02-11T04:42:35.013Z,23.60
2023-02-11T04:45:05.036Z,20.80
2023-02-11T04:47:34.187Z,19.00
2023-02-11T04:50:02.359Z,20.60
2023-02-11T04:52:30.656Z,18.10
2023-02-11T04:54:59.662Z,17.90
2023-02-11T04:57:28.148Z,19.30
2023-02-11T04:59:56.732Z,16.50
2023-02-11T05:02:24.867Z,16.80
2023-02-11T05:04:52.955Z,16.20
2023-02-11T05:07:21.871Z,16.20
2023-02-11T05:09:50.959Z,19.20
2023-02-11T05:12:19.557Z,17.70
2023-02-11T05:14:47.799Z,17.60
2023-02-11T05:17:16.278Z,19.50
2023-02-11T05:19:44.611Z,21.80
2023-02-11T05:22:17.205Z,24.10
2023-02-11T05:24:45.317Z,26.00
2023-02-11T05:27:13.462Z,26.80
2023-02-11T05:29:41.886Z,27.20
2023-02-11T05:32:10.121Z,34.50
2023-02-11T05:34:39.709Z,46.70
2023-02-11T05:37:09.276Z,44.60
2023-02-11T05:39:38.023Z,43.00
2023-02-11T05:42:09.328Z,49.30
2023-02-11T05:44:37.834Z,34.30
2023-02-11T05:47:08.869Z,36.00
2023-02-11T05:49:37.982Z,33.30
2023-02-11T05:52:08.708Z,32.10
2023-02-11T05:54:38.632Z,22.50
2023-02-11T05:57:08.564Z,29.90
2023-02-11T05:59:36.758Z,28.80
2023-02-11T06:02:05.571Z,28.80
2023-02-11T06:04:34.905Z,29.10
2023-02-11T06:07:06.062Z,28.90
2023-02-11T06:09:35.626Z,29.30
2023-02-11T06:12:07.886Z,29.20
2023-02-11T06:14:36.330Z,29.90
2023-02-11T06:17:05.477Z,30.30
2023-02-11T06:19:38.502Z,33.50
2023-02-11T06:22:07.088Z,33.30
2023-02-11T06:24:58.629Z,34.50
2023-02-11T06:27:23.701Z,34.60
2023-02-11T06:29:57.374Z,34.40
2023-02-11T06:32:45.727Z,31.90
2023-02-11T06:35:14.832Z,35.00
2023-02-11T06:37:44.935Z,35.20
2023-02-11T06:40:14.387Z,31.30
2023-02-11T06:42:43.722Z,32.20
2023-02-11T06:45:13.543Z,31.10
2023-02-11T06:47:41.770Z,34.30
2023-02-11T06:50:12.307Z,37.20
2023-02-11T06:52:40.965Z,37.00
2023-02-11T06:55:09.254Z,35.40
2023-02-11T06:57:39.878Z,34.70
2023-02-11T07:00:10.211Z,32.90
2023-02-11T07:02:39.195Z,32.80
2023-02-11T07:05:12.264Z,31.60
2023-02-11T07:07:40.538Z,27.10
2023-02-11T07:12:44.592Z,23.60
2023-02-11T07:15:12.757Z,25.20
2023-02-11T07:17:43.725Z,23.90
2023-02-11T07:20:14.739Z,25.20
2023-02-11T07:22:43.240Z,25.80
2023-02-11T07:25:11.266Z,25.90
2023-02-11T07:30:13.181Z,25.90
2023-02-11T07:32:41.362Z,27.60
2023-02-11T07:35:09.922Z,26.70
2023-02-11T07:37:38.022Z,25.50
2023-02-11T07:40:07.672Z,26.70
2023-02-11T07:42:35.916Z,56.50
2023-02-11T07:45:07.542Z,101.30
2023-02-11T07:47:35.834Z,71.30
2023-02-11T07:50:04.707Z,56.40
2023-02-11T07:52:33.100Z,44.00
2023-02-11T07:55:04.669Z,45.10
2023-02-11T07:57:33.286Z,43.60
2023-02-11T08:00:02.321Z,37.90
2023-02-11T08:02:39.178Z,48.80
2023-02-11T08:05:07.958Z,49.80
2023-02-11T08:07:36.071Z,50.90
2023-02-11T08:10:06.832Z,52.80
2023-02-11T08:12:35.851Z,55.20
2023-02-11T08:15:04.399Z,50.60
2023-02-11T08:17:32.974Z,53.00
2023-02-11T08:20:01.631Z,53.00
2023-02-11T08:22:32.463Z,56.10
2023-02-11T08:25:01.029Z,46.50
2023-02-11T08:27:29.563Z,47.70
2023-02-11T08:29:59.537Z,52.80
2023-02-11T08:32:28.128Z,52.10
2023-02-11T08:34:56.275Z,54.90
2023-02-11T08:37:24.371Z,57.30
2023-02-11T08:39:52.531Z,58.30
2023-02-11T08:42:20.637Z,60.70
2023-02-11T08:44:48.760Z,57.40
2023-02-11T08:47:16.896Z,62.70
2023-02-11T08:49:45.698Z,57.20
2023-02-11T08:52:14.295Z,59.20
2023-02-11T08:54:43.575Z,61.70
2023-02-11T08:57:11.788Z,57.40
2023-02-11T08:59:40.746Z,60.60
2023-02-11T09:02:12.743Z,61.10
2023-02-11T09:04:41.222Z,62.10
2023-02-11T09:07:12.856Z,63.50
2023-02-11T09:09:42.397Z,66.40
2023-02-11T09:12:10.502Z,71.00
2023-02-11T09:14:42.108Z,72.40
2023-02-11T09:17:10.457Z,69.40
2023-02-11T09:19:39.171Z,58.30
2023-02-11T09:22:07.467Z,79.10
2023-02-11T09:24:35.536Z,198.20
2023-02-11T09:27:03.881Z,284.20
2023-02-11T09:29:32.467Z,390.60
2023-02-11T09:32:00.994Z,470.50
2023-02-11T09:34:29.234Z,595.10
2023-02-11T09:36:57.468Z,181.60
2023-02-11T09:39:26.812Z,108.70
2023-02-11T09:41:55.350Z,128.30
2023-02-11T09:44:25.411Z,87.40
2023-02-11T09:46:56.887Z,57.30
2023-02-11T09:49:31.532Z,38.50
2023-02-11T09:52:12.491Z,44.40
2023-02-11T09:54:59.508Z,34.60
2023-02-11T09:57:35.553Z,39.00
2023-02-11T10:00:27.858Z,40.50
2023-02-11T10:02:59.624Z,43.90
2023-02-11T10:05:36.557Z,29.10
2023-02-11T10:08:14.626Z,27.40
2023-02-11T10:10:53.158Z,30.10
2023-02-11T10:13:40.197Z,29.90
2023-02-11T10:16:20.720Z,27.10
2023-02-11T10:19:14.279Z,28.10
2023-02-11T10:22:03.511Z,27.20
2023-02-11T10:24:34.956Z,26.10
2023-02-11T10:27:27.346Z,55.20
2023-02-11T10:29:59.087Z,62.20
2023-02-11T10:32:39.941Z,55.40
2023-02-11T10:35:18.425Z,50.60
2023-02-11T10:37:46.702Z,48.60
2023-02-11T10:40:19.721Z,46.90
2023-02-11T10:42:54.341Z,40.60
2023-02-11T10:45:37.016Z,38.80
2023-02-11T10:48:20.397Z,34.00
2023-02-11T10:50:48.904Z,35.80
2023-02-11T10:53:24.542Z,32.90
2023-02-11T11:00:08.638Z,32.70
2023-02-11T11:02:39.266Z,31.80
2023-02-11T11:05:17.011Z,36.30
2023-02-11T11:08:06.131Z,32.30
2023-02-11T11:10:43.730Z,33.30
2023-02-11T11:13:33.340Z,30.50
2023-02-11T11:16:35.811Z,29.80
2023-02-11T11:19:07.019Z,31.70
2023-02-11T11:21:37.653Z,28.60
2023-02-11T11:24:06.059Z,31.50
2023-02-11T11:29:43.605Z,28.60
2023-02-11T11:32:27.659Z,29.00
2023-02-11T11:34:57.880Z,27.30
2023-02-11T11:37:30.972Z,24.30
2023-02-11T11:40:11.793Z,15.80
2023-02-11T11:42:45.963Z,20.70
2023-02-11T11:45:31.817Z,15.00
2023-02-11T11:48:04.261Z,13.00
2023-02-11T11:50:34.312Z,11.60
2023-02-11T11:53:42.754Z,12.00
2023-02-11T11:56:17.578Z,11.50
2023-02-11T11:58:47.370Z,10.80
2023-02-11T12:01:45.530Z,11.30
2023-02-11T12:04:43.362Z,12.70
2023-02-11T12:07:39.036Z,13.10
2023-02-11T12:10:30.171Z,12.10
2023-02-11T12:13:22.437Z,11.00
2023-02-11T12:16:13.888Z,10.80
2023-02-11T12:19:02.832Z,9.90
2023-02-11T12:22:02.247Z,10.50
2023-02-11T12:25:05.354Z,10.50
2023-02-11T12:27:49.612Z,10.80
2023-02-11T12:30:27.279Z,10.40
2023-02-11T12:33:08.802Z,10.50
2023-02-11T12:35:39.956Z,10.00
2023-02-11T12:38:24.120Z,10.90
2023-02-11T12:41:01.454Z,10.10
2023-02-11T12:43:43.342Z,11.00
2023-02-11T12:46:18.015Z,10.50
2023-02-11T12:49:16.195Z,10.50
2023-02-11T12:52:44.814Z,11.40
2023-02-11T12:55:28.567Z,10.20
2023-02-11T12:58:03.091Z,11.30
2023-02-11T13:00:41.188Z,10.40
2023-02-11T13:03:09.584Z,12.40
2023-02-11T13:05:55.470Z,12.00
2023-02-11T13:08:33.977Z,14.00
2023-02-11T13:11:15.175Z,13.30
2023-02-11T13:13:57.916Z,12.00
2023-02-11T13:16:41.799Z,11.90
2023-02-11T13:19:13.389Z,14.00
2023-02-11T13:21:48.125Z,10.40
2023-02-11T13:24:44.529Z,11.20
2023-02-11T13:27:27.316Z,10.30
2023-02-11T13:30:14.927Z,10.30
2023-02-11T13:33:46.243Z,10.80
2023-02-11T13:36:27.815Z,10.90
2023-02-11T13:39:05.550Z,10.80
2023-02-11T13:41:45.486Z,10.50
2023-02-11T13:44:19.338Z,11.60
2023-02-11T13:46:54.355Z,10.10
2023-02-11T13:49:42.549Z,11.10
2023-02-11T13:52:32.547Z,10.70
2023-02-11T13:55:28.116Z,10.50
2023-02-11T13:58:09.205Z,10.50
2023-02-11T14:00:39.092Z,10.80
2023-02-11T14:03:35.954Z,10.70
2023-02-11T16:15:58.630Z,22.60
2023-02-11T16:18:38.417Z,23.90
2023-02-11T16:21:19.110Z,19.30
2023-02-11T16:23:54.395Z,17.60
2023-02-11T16:26:29.594Z,20.50
2023-02-11T16:29:28.178Z,17.30
2023-02-11T16:32:15.533Z,17.70
2023-02-11T16:34:44.094Z,16.20
2023-02-11T16:37:15.217Z,15.30
2023-02-11T16:39:43.700Z,19.30
2023-02-11T16:42:14.977Z,25.00
2023-02-11T16:44:43.648Z,24.20
2023-02-11T16:47:31.519Z,17.20
2023-02-11T16:50:18.944Z,18.20
2023-02-11T16:52:47.322Z,17.30
2023-02-11T16:55:16.021Z,17.10
2023-02-11T16:57:47.288Z,15.70
2023-02-11T17:00:17.214Z,14.00
2023-02-11T17:02:46.389Z,15.00
2023-02-11T17:05:20.272Z,21.20
2023-02-11T17:07:50.164Z,13.90
2023-02-11T17:10:21.404Z,16.50
2023-02-11T17:12:51.542Z,12.90
2023-02-11T17:15:22.457Z,14.50
2023-02-11T17:17:51.407Z,15.00
2023-02-11T17:20:20.773Z,24.30
2023-02-11T17:22:48.912Z,14.20
2023-02-11T17:25:19.629Z,14.10
2023-02-11T17:27:54.616Z,13.00
2023-02-11T17:30:23.617Z,12.60
2023-02-11T17:32:52.945Z,13.80
2023-02-11T17:35:21.533Z,17.20
2023-02-11T17:37:49.964Z,16.10
2023-02-11T17:40:18.487Z,22.10
2023-02-11T17:42:47.004Z,20.80
2023-02-11T17:45:19.334Z,13.60
2023-02-11T17:47:49.669Z,11.90
2023-02-11T17:50:18.352Z,15.40
2023-02-11T17:52:46.575Z,12.40
2023-02-11T17:55:15.233Z,12.10
2023-02-11T17:57:43.705Z,14.50
2023-02-11T18:00:12.834Z,15.60
2023-02-11T18:02:42.928Z,16.90
2023-02-11T18:05:13.903Z,12.10
2023-02-11T18:07:44.643Z,13.50
2023-02-11T18:10:14.644Z,13.40
2023-02-11T18:12:44.813Z,11.80
2023-02-11T18:15:17.329Z,13.00
2023-02-11T18:17:48.009Z,13.90
2023-02-11T18:20:16.162Z,12.90
2023-02-11T18:22:45.178Z,12.00
2023-02-11T18:25:14.928Z,11.10
2023-02-11T18:27:43.259Z,16.60
2023-02-11T18:30:15.238Z,14.00
2023-02-11T18:32:44.657Z,14.20
2023-02-11T18:35:15.204Z,15.70
2023-02-11T18:37:45.786Z,13.60
2023-02-11T18:40:17.321Z,11.60
2023-02-11T18:42:45.809Z,12.80
2023-02-11T18:45:17.134Z,26.00
2023-02-11T18:47:45.255Z,13.40
2023-02-11T18:50:15.888Z,13.70
2023-02-11T18:52:44.533Z,14.10
2023-02-11T18:55:16.616Z,17.00
2023-02-11T18:57:50.339Z,12.90
2023-02-11T19:00:19.252Z,12.20
2023-02-11T19:02:48.246Z,14.50
2023-02-11T19:05:16.959Z,15.00
2023-02-11T19:07:50.158Z,29.90
2023-02-11T19:12:51.098Z,17.60
2023-02-11T19:15:23.076Z,16.50
2023-02-11T19:17:54.470Z,26.50
2023-02-11T19:20:22.875Z,16.00
2023-02-11T19:22:51.532Z,14.30
2023-02-11T19:25:22.027Z,13.20
2023-02-11T19:27:50.756Z,13.40
2023-02-11T19:30:19.030Z,13.40
2023-02-11T19:32:52.484Z,13.70
2023-02-11T19:35:25.669Z,13.60
2023-02-11T19:37:55.229Z,13.80
2023-02-11T19:40:24.152Z,14.10
2023-02-11T19:42:53.734Z,14.10
2023-02-11T19:45:28.470Z,14.40
2023-02-11T19:48:03.626Z,13.80
2023-02-11T19:50:36.320Z,14.20
2023-02-11T19:55:41.301Z,15.70
2023-02-11T19:58:13.985Z,16.20
2023-02-11T20:00:43.867Z,13.70
2023-02-11T20:03:12.443Z,14.40
2023-02-11T20:05:43.747Z,15.30
2023-02-11T20:08:18.843Z,14.60
2023-02-11T20:10:47.197Z,12.60
2023-02-11T20:13:20.903Z,13.70
2023-02-11T20:15:49.775Z,13.60
2023-02-11T20:18:18.181Z,19.70
2023-02-11T20:20:46.318Z,14.80
2023-02-11T20:23:14.469Z,13.20
2023-02-11T20:25:42.671Z,14.10
2023-02-11T20:28:11.200Z,13.50
2023-02-11T20:30:41.469Z,17.30
2023-02-11T20:33:14.700Z,18.80
2023-02-11T20:38:11.235Z,15.00
2023-02-11T20:40:44.610Z,16.90
2023-02-11T20:43:16.091Z,17.10
2023-02-11T20:45:44.807Z,30.90
2023-02-11T20:48:13.987Z,13.10
2023-02-11T20:50:42.212Z,16.80
2023-02-11T20:53:11.196Z,13.90
2023-02-11T20:55:40.750Z,12.50
2023-02-11T20:58:12.057Z,13.90
2023-02-11T21:00:47.574Z,13.30
2023-02-11T21:03:16.180Z,12.60
2023-02-11T21:05:49.357Z,13.70
2023-02-11T21:08:19.206Z,12.60
2023-02-11T21:10:48.939Z,18.00
2023-02-11T21:13:22.404Z,21.10
2023-02-11T21:15:57.972Z,20.50
2023-02-11T21:18:27.029Z,20.40
2023-02-11T21:20:56.586Z,19.50
2023-02-11T21:23:29.320Z,21.00
2023-02-11T21:26:00.178Z,15.40
2023-02-11T21:28:28.793Z,14.50
2023-02-11T21:30:57.642Z,15.70
2023-02-11T21:33:27.174Z,16.70
2023-02-11T21:35:58.827Z,12.40
2023-02-11T21:38:31.656Z,13.90
2023-02-11T21:41:08.358Z,13.60
2023-02-11T21:43:41.750Z,14.80
2023-02-11T21:46:12.425Z,13.20
2023-02-11T21:48:41.651Z,14.00
2023-02-11T21:51:21.750Z,16.50
2023-02-11T21:53:56.136Z,15.00
2023-02-11T21:56:28.312Z,16.10
2023-02-11T21:58:59.633Z,11.20
2023-02-11T22:01:32.117Z,11.90
2023-02-11T22:04:01.460Z,16.40
2023-02-11T22:06:31.406Z,8.50
2023-02-11T22:09:04.819Z,8.50
2023-02-11T22:11:37.818Z,8.10
2023-02-11T22:14:10.691Z,6.60
2023-02-11T22:16:45.563Z,6.90
2023-02-11T22:19:19.177Z,7.90
2023-02-11T22:21:50.433Z,7.10
2023-02-11T22:24:20.997Z,8.00
2023-02-11T22:26:49.808Z,7.50
2023-02-11T22:29:20.889Z,6.70
2023-02-11T22:31:48.975Z,7.30
2023-02-11T22:34:20.219Z,8.50
2023-02-11T22:36:55.056Z,11.90
2023-02-11T22:39:25.916Z,8.60
2023-02-11T22:41:57.278Z,6.90
2023-02-11T22:44:27.717Z,6.70
2023-02-11T22:46:58.224Z,6.70
2023-02-11T22:49:33.371Z,10.80
2023-02-11T22:52:04.839Z,7.00
2023-02-11T22:54:36.133Z,6.60
2023-02-11T22:57:04.254Z,5.60
2023-02-11T22:59:35.589Z,6.40
2023-02-11T23:02:05.969Z,5.80
2023-02-11T23:04:37.746Z,6.20
2023-02-11T23:07:08.392Z,6.00
2023-02-11T23:09:36.888Z,6.40
2023-02-11T23:12:05.475Z,6.30
2023-02-11T23:14:37.292Z,6.20
2023-02-11T23:17:08.065Z,6.20
2023-02-11T23:19:38.934Z,6.50
2023-02-11T23:22:07.568Z,7.10
2023-02-11T23:24:44.391Z,7.30
2023-02-11T23:27:17.303Z,9.30
2023-02-11T23:32:15.656Z,7.80
2023-02-11T23:34:45.933Z,6.50
2023-02-11T23:37:19.959Z,8.40
2023-02-11T23:39:48.047Z,7.60
2023-02-11T23:42:16.932Z,7.50
2023-02-11T23:44:47.574Z,8.00
2023-02-11T23:47:19.056Z,11.20
2023-02-11T23:49:47.294Z,11.30
2023-02-11T23:52:18.113Z,10.70
2023-02-11T23:54:48.257Z,10.70
2023-02-11T23:57:16.449Z,7.70
2023-02-11T23:59:48.969Z,6.90
